createdAt,value
2023-03-01T00:00:02.123Z,0.13
2023-03-01T00:02:30.455Z,0.11
2023-03-01T00:04:58.481Z,0.04
2023-03-01T00:07:26.525Z,0.07
2023-03-01T00:09:55.074Z,0.03
2023-03-01T00:12:23.080Z,0.04
2023-03-01T00:14:51.724Z,-0.15
2023-03-01T00:17:21.172Z,-0.15
2023-03-01T00:19:49.300Z,-0.13
2023-03-01T00:22:17.704Z,-0.23
2023-03-01T00:24:45.691Z,-0.22
2023-03-01T00:27:13.968Z,-0.36
2023-03-01T00:29:41.907Z,-0.48
2023-03-01T00:32:09.981Z,-0.45
2023-03-01T00:34:39.359Z,-0.43
2023-03-01T00:37:07.602Z,-0.48
2023-03-01T00:39:36.016Z,-0.44
2023-03-01T00:42:04.068Z,-0.46
2023-03-01T00:44:32.058Z,-0.36
2023-03-01T00:46:59.976Z,-0.24
2023-03-01T00:49:28.721Z,-0.26
2023-03-01T00:51:58.931Z,-0.31
2023-03-01T00:54:26.850Z,-0.25
2023-03-01T00:56:54.848Z,-0.37
2023-03-01T00:59:22.881Z,-0.31
2023-03-01T01:01:50.948Z,-0.29
2023-03-01T01:04:19.267Z,-0.36
2023-03-01T01:06:48.142Z,-0.30
2023-03-01T01:09:19.205Z,-0.22
2023-03-01T01:11:47.944Z,-0.15
2023-03-01T01:14:16.166Z,-0.20
2023-03-01T01:16:44.033Z,-0.16
2023-03-01T01:19:12.058Z,-0.25
2023-03-01T01:21:40.279Z,-0.40
2023-03-01T01:24:08.744Z,-0.55
2023-03-01T01:26:37.991Z,-0.61
2023-03-01T01:29:06.375Z,-0.49
2023-03-01T01:31:34.728Z,-0.49
2023-03-01T01:34:03.568Z,-0.47
2023-03-01T01:36:32.206Z,-0.38
2023-03-01T01:39:00.394Z,-0.48
2023-03-01T01:41:28.678Z,-0.64
2023-03-01T01:44:22.963Z,-1.17
2023-03-01T01:46:52.588Z,-0.85
2023-03-01T01:49:25.687Z,-0.74
2023-03-01T01:51:57.616Z,-0.75
2023-03-01T01:54:26.236Z,-0.71
2023-03-01T01:56:57.380Z,-0.73
2023-03-01T01:59:26.925Z,-0.74
2023-03-01T02:01:54.852Z,-0.75
2023-03-01T02:04:22.845Z,-0.80
2023-03-01T02:06:53.636Z,-0.90
2023-03-01T02:09:21.588Z,-0.84
2023-03-01T02:11:49.655Z,-0.84
2023-03-01T02:14:17.857Z,-0.86
2023-03-01T02:16:47.329Z,-0.79
2023-03-01T02:19:17.956Z,-0.86
2023-03-01T02:21:49.256Z,-0.82
2023-03-01T02:24:22.066Z,-0.94
2023-03-01T02:26:52.740Z,-0.85
2023-03-01T02:29:22.229Z,-0.82
2023-03-01T02:31:50.212Z,-0.86
2023-03-01T02:34:19.451Z,-0.90
2023-03-01T02:36:48.543Z,-0.92
2023-03-01T02:39:18.679Z,-0.90
2023-03-01T02:41:49.815Z,-0.91
2023-03-01T02:44:18.152Z,-0.90
2023-03-01T02:46:49.160Z,-1.00
2023-03-01T02:49:26.060Z,-1.08
2023-03-01T02:52:30.487Z,-1.17
2023-03-01T02:55:01.182Z,-1.19
2023-03-01T02:57:29.706Z,-1.26
2023-03-01T02:59:57.708Z,-1.18
2023-03-01T03:02:38.370Z,-1.33
2023-03-01T03:05:09.329Z,-1.49
2023-03-01T03:07:38.081Z,-1.44
2023-03-01T03:10:09.066Z,-1.43
2023-03-01T03:12:37.077Z,-1.37
2023-03-01T03:15:09.802Z,-1.29
2023-03-01T03:17:39.458Z,-1.36
2023-03-01T03:20:11.900Z,-1.31
2023-03-01T03:22:40.467Z,-1.38
2023-03-01T03:25:11.435Z,-1.44
2023-03-01T03:27:39.694Z,-1.28
2023-03-01T03:30:09.847Z,-1.40
2023-03-01T03:32:39.158Z,-1.48
2023-03-01T03:35:10.455Z,-1.42
2023-03-01T03:37:55.953Z,-1.31
2023-03-01T03:40:24.005Z,-1.32
2023-03-01T03:42:52.322Z,-1.40
2023-03-01T03:45:20.402Z,-1.41
2023-03-01T03:47:50.004Z,-1.49
2023-03-01T03:50:21.308Z,-1.39
2023-03-01T03:52:49.458Z,-1.51
2023-03-01T03:55:20.405Z,-1.43
2023-03-01T03:57:52.359Z,-1.36
2023-03-01T04:00:21.437Z,-1.26
2023-03-01T04:02:50.861Z,-1.38
2023-03-01T04:05:20.209Z,-1.33
2023-03-01T04:07:48.228Z,-1.41
2023-03-01T04:10:16.990Z,-1.32
2023-03-01T04:12:45.385Z,-1.39
2023-03-01T04:15:14.879Z,-1.51
2023-03-01T04:17:42.944Z,-1.56
2023-03-01T04:20:13.535Z,-1.61
2023-03-01T04:22:42.225Z,-1.70
2023-03-01T04:25:15.101Z,-1.77
2023-03-01T04:27:43.256Z,-1.79
2023-03-01T04:30:12.430Z,-1.72
2023-03-01T04:32:40.580Z,-1.69
2023-03-01T04:35:09.312Z,-1.72
2023-03-01T04:37:38.705Z,-1.86
2023-03-01T04:40:14.048Z,-1.75
2023-03-01T04:42:41.966Z,-1.61
2023-03-01T04:45:14.147Z,-1.83
2023-03-01T04:47:43.806Z,-1.83
2023-03-01T04:50:13.037Z,-1.89
2023-03-01T04:52:42.748Z,-1.90
2023-03-01T04:55:11.622Z,-1.80
2023-03-01T04:57:39.668Z,-2.00
2023-03-01T05:00:20.910Z,-1.91
2023-03-01T05:02:54.463Z,-1.98
2023-03-01T05:05:26.671Z,-2.01
2023-03-01T05:08:00.632Z,-1.95
2023-03-01T05:10:30.086Z,-2.03
2023-03-01T05:12:59.479Z,-2.00
2023-03-01T05:15:27.717Z,-2.03
2023-03-01T05:17:56.205Z,-2.09
2023-03-01T05:20:25.067Z,-2.01
2023-03-01T05:22:53.175Z,-2.13
2023-03-01T05:25:23.144Z,-2.17
2023-03-01T05:27:51.162Z,-2.14
2023-03-01T05:30:19.700Z,-2.26
2023-03-01T05:32:48.605Z,-2.19
2023-03-01T05:35:17.773Z,-2.14
2023-03-01T05:37:46.630Z,-2.13
2023-03-01T05:40:17.720Z,-2.21
2023-03-01T05:42:48.020Z,-2.18
2023-03-01T05:45:16.394Z,-2.26
2023-03-01T05:47:46.690Z,-2.18
2023-03-01T05:50:19.645Z,-2.25
2023-03-01T05:52:49.515Z,-2.21
2023-03-01T05:55:18.318Z,-2.16
2023-03-01T05:57:47.851Z,-2.30
2023-03-01T06:00:18.223Z,-2.23
2023-03-01T06:02:46.299Z,-2.23
2023-03-01T06:05:16.508Z,-2.25
2023-03-01T06:07:44.997Z,-2.11
2023-03-01T06:10:13.734Z,-2.04
2023-03-01T06:12:42.458Z,-2.09
2023-03-01T06:15:13.079Z,-2.01
2023-03-01T06:17:41.832Z,-2.00
2023-03-01T06:20:11.980Z,-2.04
2023-03-01T06:22:40.046Z,-1.86
2023-03-01T06:25:10.872Z,-1.89
2023-03-01T06:27:38.932Z,-1.77
2023-03-01T06:30:08.998Z,-1.70
2023-03-01T06:32:39.143Z,-1.67
2023-03-01T06:35:08.416Z,-1.69
2023-03-01T06:37:36.633Z,-1.61
2023-03-01T06:40:09.156Z,-1.69
2023-03-01T06:42:39.563Z,-1.74
2023-03-01T06:45:08.545Z,-1.77
2023-03-01T06:47:38.373Z,-1.64
2023-03-01T06:50:07.138Z,-1.83
2023-03-01T06:52:35.540Z,-1.80
2023-03-01T06:55:03.905Z,-1.61
2023-03-01T06:57:32.149Z,-1.65
2023-03-01T07:00:00.553Z,-1.73
2023-03-01T07:02:28.771Z,-1.67
2023-03-01T07:04:58.583Z,-1.64
2023-03-01T07:07:26.648Z,-1.62
2023-03-01T07:09:55.570Z,-1.61
2023-03-01T07:12:23.744Z,-1.53
2023-03-01T07:14:51.879Z,-1.48
2023-03-01T07:17:20.879Z,-1.51
2023-03-01T07:19:49.752Z,-1.58
2023-03-01T07:22:19.868Z,-1.35
2023-03-01T07:24:48.195Z,-1.30
2023-03-01T07:27:16.882Z,-1.27
2023-03-01T07:29:45.538Z,-1.16
2023-03-01T07:32:13.815Z,-1.09
2023-03-01T07:34:42.075Z,-1.09
2023-03-01T07:37:10.404Z,-0.90
2023-03-01T07:39:40.167Z,-0.80
2023-03-01T07:42:08.357Z,-0.75
2023-03-01T07:44:38.116Z,-0.57
2023-03-01T07:47:06.433Z,-0.55
2023-03-01T07:49:34.657Z,-0.53
2023-03-01T07:52:02.987Z,-0.41
2023-03-01T07:54:31.164Z,-0.41
2023-03-01T07:57:00.611Z,-0.30
2023-03-01T07:59:30.300Z,-0.13
2023-03-01T08:01:58.478Z,-0.15
2023-03-01T08:04:27.776Z,-0.04
2023-03-01T08:06:56.668Z,-0.06
2023-03-01T08:09:25.316Z,0.12
2023-03-01T08:11:53.746Z,0.01
2023-03-01T08:14:23.638Z,0.11
2023-03-01T08:16:52.249Z,0.17
2023-03-01T08:19:20.350Z,0.21
2023-03-01T08:21:50.045Z,0.19
2023-03-01T08:24:20.404Z,0.36
2023-03-01T08:26:48.490Z,0.40
2023-03-01T08:29:16.577Z,0.22
2023-03-01T08:31:46.128Z,0.44
2023-03-01T08:34:16.887Z,0.42
2023-03-01T08:36:46.291Z,0.57
2023-03-01T08:39:15.906Z,0.68
2023-03-01T08:41:45.037Z,0.83
2023-03-01T08:44:14.879Z,0.78
2023-03-01T08:46:43.642Z,0.77
2023-03-01T08:49:14.188Z,1.05
2023-03-01T08:51:42.256Z,1.11
2023-03-01T08:54:15.772Z,1.04
2023-03-01T08:56:43.856Z,1.13
2023-03-01T08:59:12.132Z,1.24
2023-03-01T09:01:41.266Z,1.40
2023-03-01T09:06:38.993Z,1.69
2023-03-01T09:09:07.206Z,1.59
2023-03-01T09:11:35.649Z,1.60
2023-03-01T09:14:03.811Z,1.71
2023-03-01T09:16:36.804Z,1.78
2023-03-01T09:19:06.238Z,1.81
2023-03-01T09:21:40.552Z,1.83
2023-03-01T09:24:13.982Z,1.77
2023-03-01T09:26:42.527Z,1.82
2023-03-01T09:29:11.437Z,2.05
2023-03-01T09:31:39.509Z,1.94
2023-03-01T09:34:07.602Z,1.95
2023-03-01T09:36:35.779Z,2.11
2023-03-01T09:39:04.024Z,2.31
2023-03-01T09:41:48.615Z,2.27
2023-03-01T09:44:33.648Z,2.18
2023-03-01T09:47:01.800Z,2.43
2023-03-01T09:49:31.489Z,2.50
2023-03-01T09:52:02.400Z,2.47
2023-03-01T09:54:30.424Z,2.54
2023-03-01T09:57:08.920Z,2.89
2023-03-01T09:59:44.389Z,2.75
2023-03-01T10:02:23.756Z,2.81
2023-03-01T10:04:52.850Z,2.97
2023-03-01T10:07:28.518Z,2.87
2023-03-01T10:09:56.532Z,3.02
2023-03-01T10:12:29.088Z,3.08
2023-03-01T10:15:00.560Z,3.01
2023-03-01T10:17:32.617Z,3.05
2023-03-01T10:20:08.206Z,2.96
2023-03-01T10:22:36.540Z,3.07
2023-03-01T10:25:05.011Z,3.14
2023-03-01T10:27:38.043Z,3.19
2023-03-01T10:30:10.073Z,3.23
2023-03-01T10:32:38.214Z,3.38
2023-03-01T10:35:18.413Z,3.28
2023-03-01T10:37:59.366Z,3.36
2023-03-01T10:40:27.574Z,3.41
2023-03-01T10:42:59.615Z,3.39
2023-03-01T10:45:36.151Z,3.49
2023-03-01T10:48:08.500Z,3.76
2023-03-01T10:50:39.209Z,3.89
2023-03-01T10:53:07.983Z,3.73
2023-03-01T10:55:37.202Z,3.87
2023-03-01T10:58:21.246Z,3.81
2023-03-01T11:00:53.807Z,3.86
2023-03-01T11:03:24.569Z,3.78
2023-03-01T11:05:54.906Z,3.97
2023-03-01T11:08:40.562Z,4.15
2023-03-01T11:11:25.814Z,4.06
2023-03-01T11:13:57.988Z,4.18
2023-03-01T11:16:31.757Z,4.10
2023-03-01T11:19:22.530Z,4.27
2023-03-01T11:21:56.928Z,4.55
2023-03-01T11:24:28.556Z,4.80
2023-03-01T11:26:57.195Z,4.66
2023-03-01T11:29:47.761Z,4.84
2023-03-01T11:32:16.798Z,4.83
2023-03-01T11:34:45.943Z,4.96
2023-03-01T11:37:26.079Z,5.02
2023-03-01T11:39:58.312Z,5.00
2023-03-01T11:42:30.795Z,5.16
2023-03-01T11:45:02.108Z,5.11
2023-03-01T11:47:43.245Z,5.31
2023-03-01T11:50:17.569Z,5.14
2023-03-01T11:52:53.489Z,5.12
2023-03-01T11:55:45.755Z,5.33
2023-03-01T11:58:38.684Z,5.21
2023-03-01T12:01:18.689Z,5.44
2023-03-01T12:04:21.993Z,5.49
2023-03-01T12:06:54.708Z,5.86
2023-03-01T12:09:33.631Z,5.73
2023-03-01T12:12:11.301Z,5.68
2023-03-01T12:14:57.619Z,5.86
2023-03-01T12:17:40.604Z,5.88
2023-03-01T12:20:15.649Z,5.80
2023-03-01T12:22:52.463Z,5.97
2023-03-01T12:25:27.757Z,6.16
2023-03-01T12:28:04.338Z,6.08
2023-03-01T12:30:38.030Z,5.82
2023-03-01T12:33:16.870Z,5.83
2023-03-01T12:35:57.068Z,5.79
2023-03-01T12:38:39.902Z,6.02
2023-03-01T12:41:26.953Z,5.97
2023-03-01T12:44:04.216Z,5.82
2023-03-01T12:46:40.267Z,6.04
2023-03-01T12:49:11.449Z,5.72
2023-03-01T12:51:40.281Z,5.58
2023-03-01T12:54:14.433Z,5.74
2023-03-01T12:56:42.569Z,5.64
2023-03-01T12:59:15.102Z,5.94
2023-03-01T13:01:45.453Z,5.80
2023-03-01T13:04:29.832Z,5.78
2023-03-01T13:07:10.020Z,5.83
2023-03-01T13:09:46.237Z,5.93
2023-03-01T13:12:47.106Z,5.89
2023-03-01T13:15:30.014Z,5.51
2023-03-01T13:17:58.765Z,5.40
2023-03-01T13:20:31.624Z,5.71
2023-03-01T13:23:05.372Z,5.73
2023-03-01T13:25:42.101Z,5.81
2023-03-01T13:28:39.779Z,5.59
2023-03-01T13:31:08.106Z,5.54
2023-03-01T13:33:42.528Z,5.48
2023-03-01T13:36:14.477Z,5.53
2023-03-01T13:38:48.981Z,5.44
2023-03-01T13:41:17.127Z,5.61
2023-03-01T13:43:45.759Z,5.51
2023-03-01T13:46:17.968Z,5.48
2023-03-01T13:48:46.897Z,5.40
2023-03-01T13:51:16.325Z,5.51
2023-03-01T13:53:45.576Z,5.35
2023-03-01T13:56:14.973Z,5.48
2023-03-01T13:58:51.190Z,5.61
2023-03-01T14:01:27.719Z,5.43
2023-03-01T14:03:56.532Z,5.42
2023-03-01T14:06:27.081Z,5.45
2023-03-01T14:09:05.954Z,5.36
2023-03-01T14:11:44.462Z,5.31
2023-03-01T14:14:39.975Z,5.33
2023-03-01T14:17:19.228Z,4.98
2023-03-01T14:19:48.174Z,5.19
2023-03-01T14:22:21.552Z,5.32
2023-03-01T14:24:50.944Z,5.16
2023-03-01T14:27:21.217Z,5.13
2023-03-01T14:29:56.876Z,5.21
2023-03-01T14:32:27.202Z,5.22
2023-03-01T14:34:56.406Z,5.46
2023-03-01T14:37:27.339Z,5.41
2023-03-01T14:39:55.461Z,5.47
2023-03-01T14:42:24.299Z,5.40
2023-03-01T14:44:53.683Z,5.51
2023-03-01T14:47:27.470Z,5.33
2023-03-01T14:49:58.691Z,5.36
2023-03-01T14:52:35.221Z,5.26
2023-03-01T14:55:03.496Z,5.19
2023-03-01T14:57:33.701Z,5.16
2023-03-01T15:00:06.514Z,5.31
2023-03-01T15:02:35.887Z,5.16
2023-03-01T15:05:08.126Z,5.18
2023-03-01T15:07:39.470Z,5.10
2023-03-01T15:10:08.137Z,5.10
2023-03-01T15:12:41.205Z,5.17
2023-03-01T15:15:23.575Z,5.13
2023-03-01T15:17:56.228Z,5.07
2023-03-01T15:20:27.077Z,5.10
2023-03-01T15:22:56.538Z,5.28
2023-03-01T15:25:47.230Z,5.06
2023-03-01T15:28:20.419Z,5.12
2023-03-01T15:30:48.461Z,5.23
2023-03-01T15:33:21.418Z,5.06
2023-03-01T15:35:50.485Z,5.23
2023-03-01T15:38:31.974Z,5.22
2023-03-01T15:41:01.382Z,5.23
2023-03-01T15:43:44.825Z,5.17
2023-03-01T15:46:21.546Z,5.24
2023-03-01T15:48:50.508Z,5.11
2023-03-01T15:51:18.635Z,5.18
2023-03-01T15:53:54.464Z,5.09
2023-03-01T15:56:22.881Z,5.01
2023-03-01T15:58:50.963Z,4.99
2023-03-01T16:01:22.070Z,5.07
2023-03-01T16:03:50.329Z,4.98
2023-03-01T16:06:23.396Z,4.88
2023-03-01T16:08:55.458Z,4.79
2023-03-01T16:11:24.030Z,4.67
2023-03-01T16:13:52.936Z,4.63
2023-03-01T16:16:21.252Z,4.65
2023-03-01T16:18:50.563Z,4.61
2023-03-01T16:21:26.342Z,4.57
2023-03-01T16:23:58.292Z,4.39
2023-03-01T16:26:26.893Z,4.51
2023-03-01T16:28:56.615Z,4.39
2023-03-01T16:31:25.100Z,4.37
2023-03-01T16:33:55.517Z,4.30
2023-03-01T16:36:24.884Z,4.28
2023-03-01T16:38:52.992Z,4.26
2023-03-01T16:41:23.351Z,4.16
2023-03-01T16:43:51.841Z,4.16
2023-03-01T16:46:20.976Z,4.08
2023-03-01T16:48:49.858Z,3.98
2023-03-01T16:51:18.008Z,3.96
2023-03-01T16:53:47.524Z,3.89
2023-03-01T16:56:15.753Z,3.87
2023-03-01T16:58:48.426Z,3.83
2023-03-01T17:01:18.464Z,3.83
2023-03-01T17:03:47.383Z,3.71
2023-03-01T17:06:16.344Z,3.67
2023-03-01T17:08:45.227Z,3.58
2023-03-01T17:11:15.054Z,3.56
2023-03-01T17:13:43.952Z,3.45
2023-03-01T17:16:15.432Z,3.47
2023-03-01T17:18:43.581Z,3.37
2023-03-01T17:21:11.755Z,3.28
2023-03-01T17:23:41.514Z,3.29
2023-03-01T17:26:09.855Z,3.18
2023-03-01T17:28:38.243Z,3.18
2023-03-01T17:31:07.850Z,3.11
2023-03-01T17:33:38.253Z,3.15
2023-03-01T17:36:07.317Z,3.11
2023-03-01T17:38:36.590Z,3.09
2023-03-01T17:41:05.436Z,3.10
2023-03-01T17:43:36.293Z,3.09
2023-03-01T17:46:07.343Z,2.98
2023-03-01T17:48:38.568Z,2.92
2023-03-01T17:51:10.205Z,3.02
2023-03-01T17:53:38.276Z,2.86
2023-03-01T17:56:08.245Z,2.83
2023-03-01T17:58:36.253Z,2.81
2023-03-01T18:01:14.731Z,2.83
2023-03-01T18:03:46.588Z,2.81
2023-03-01T18:06:16.025Z,2.78
2023-03-01T18:08:45.421Z,2.80
2023-03-01T18:11:14.645Z,2.72
2023-03-01T18:13:46.081Z,2.66
2023-03-01T18:16:15.375Z,2.62
2023-03-01T18:18:46.234Z,2.53
2023-03-01T18:21:14.703Z,2.63
2023-03-01T18:23:42.934Z,2.67
2023-03-01T18:26:17.590Z,2.57
2023-03-01T18:28:47.696Z,2.49
2023-03-01T18:31:18.437Z,2.48
2023-03-01T18:33:49.754Z,2.56
2023-03-01T18:36:20.626Z,2.41
2023-03-01T18:38:49.008Z,2.40
2023-03-01T18:41:17.116Z,2.42
2023-03-01T18:43:45.797Z,2.36
2023-03-01T18:46:13.923Z,2.40
2023-03-01T18:48:42.121Z,2.31
2023-03-01T18:51:16.124Z,2.30
2023-03-01T18:53:45.430Z,2.30
2023-03-01T18:56:13.559Z,2.17
2023-03-01T18:58:42.649Z,2.19
2023-03-01T19:01:14.696Z,2.20
2023-03-01T19:03:42.670Z,2.20
2023-03-01T19:06:10.869Z,2.24
2023-03-01T19:08:42.277Z,2.11
2023-03-01T19:11:10.606Z,2.10
2023-03-01T19:13:39.602Z,2.02
2023-03-01T19:16:08.378Z,2.04
2023-03-01T19:18:36.965Z,1.90
2023-03-01T19:21:05.643Z,1.92
2023-03-01T19:23:35.130Z,1.88
2023-03-01T19:26:06.870Z,1.95
2023-03-01T19:28:35.479Z,1.93
2023-03-01T19:31:05.746Z,1.85
2023-03-01T19:33:34.965Z,1.81
2023-03-01T19:36:03.293Z,1.78
2023-03-01T19:38:31.456Z,1.84
2023-03-01T19:40:59.545Z,1.87
2023-03-01T19:43:29.409Z,1.84
2023-03-01T19:45:58.081Z,1.79
2023-03-01T19:48:26.681Z,1.70
2023-03-01T19:50:55.015Z,1.79
2023-03-01T19:53:23.453Z,1.77
2023-03-01T19:55:53.458Z,1.82
2023-03-01T19:58:21.472Z,1.81
2023-03-01T20:00:57.532Z,1.83
2023-03-01T20:03:27.096Z,1.91
2023-03-01T20:05:55.073Z,1.93
2023-03-01T20:08:23.835Z,1.99
2023-03-01T20:10:52.022Z,1.97
2023-03-01T20:13:21.866Z,1.90
2023-03-01T20:15:51.792Z,1.87
2023-03-01T20:18:20.021Z,1.98
2023-03-01T20:20:50.378Z,1.92
2023-03-01T20:23:21.238Z,1.86
2023-03-01T20:25:49.773Z,1.92
2023-03-01T20:28:18.032Z,1.92
2023-03-01T20:30:46.119Z,1.84
2023-03-01T20:33:16.027Z,1.91
2023-03-01T20:35:44.291Z,1.92
2023-03-01T20:38:12.410Z,1.82
2023-03-01T20:40:40.770Z,1.81
2023-03-01T20:43:08.815Z,1.69
2023-03-01T20:45:38.601Z,1.75
2023-03-01T20:48:07.077Z,1.70
2023-03-01T20:50:36.510Z,1.81
2023-03-01T20:53:04.630Z,1.68
2023-03-01T20:55:32.763Z,1.72
2023-03-01T20:58:03.156Z,1.73
2023-03-01T21:00:31.335Z,1.69
2023-03-01T21:02:59.720Z,1.60
2023-03-01T21:05:27.874Z,1.57
2023-03-01T21:07:58.836Z,1.54
2023-03-01T21:10:27.387Z,1.49
2023-03-01T21:12:55.514Z,1.64
2023-03-01T21:15:29.404Z,1.53
2023-03-01T21:17:57.932Z,1.47
2023-03-01T21:20:26.028Z,1.40
2023-03-01T21:22:54.117Z,1.41
2023-03-01T21:25:23.996Z,1.45
2023-03-01T21:27:52.678Z,1.42
2023-03-01T21:30:20.950Z,1.30
2023-03-01T21:32:55.006Z,1.37
2023-03-01T21:35:23.926Z,1.42
2023-03-01T21:37:52.698Z,1.31
2023-03-01T21:40:21.390Z,1.23
2023-03-01T21:42:51.522Z,1.25
2023-03-01T21:45:19.708Z,1.19
2023-03-01T21:47:47.990Z,1.26
2023-03-01T21:50:16.281Z,1.24
2023-03-01T21:52:44.433Z,1.17
2023-03-01T21:55:14.002Z,1.30
2023-03-01T21:57:44.543Z,1.21
2023-03-01T22:00:17.359Z,1.21
2023-03-01T22:02:45.660Z,1.19
2023-03-01T22:05:13.728Z,1.12
2023-03-01T22:07:42.015Z,1.06
2023-03-01T22:10:11.025Z,1.07
2023-03-01T22:12:39.514Z,1.11
2023-03-01T22:15:09.551Z,1.07
2023-03-01T22:17:39.123Z,1.11
2023-03-01T22:20:09.316Z,1.15
2023-03-01T22:22:37.421Z,1.17
2023-03-01T22:25:06.114Z,1.15
2023-03-01T22:27:34.470Z,1.23
2023-03-01T22:30:02.518Z,1.15
2023-03-01T22:32:33.207Z,1.02
2023-03-01T22:35:02.706Z,1.04
2023-03-01T22:37:30.807Z,1.02
2023-03-01T22:39:58.907Z,1.00
2023-03-01T22:42:27.029Z,0.95
2023-03-01T22:44:55.023Z,1.08
2023-03-01T22:47:23.203Z,1.11
2023-03-01T22:49:51.376Z,1.14
2023-03-01T22:52:21.248Z,0.94
2023-03-01T22:54:55.194Z,0.94
2023-03-01T22:57:23.220Z,1.09
2023-03-01T22:59:51.199Z,1.06
2023-03-01T23:02:22.795Z,1.09
2023-03-01T23:04:50.954Z,1.13
2023-03-01T23:07:20.336Z,0.96
2023-03-01T23:09:50.654Z,1.09
2023-03-01T23:12:20.488Z,1.05
2023-03-01T23:14:48.760Z,0.87
2023-03-01T23:17:17.275Z,0.89
2023-03-01T23:19:45.251Z,0.85
2023-03-01T23:22:13.247Z,0.93
2023-03-01T23:24:43.155Z,0.77
2023-03-01T23:27:13.972Z,0.68
2023-03-01T23:29:42.365Z,0.64
2023-03-01T23:32:10.993Z,0.62
2023-03-01T23:34:43.906Z,0.67
2023-03-01T23:37:11.918Z,0.67
2023-03-01T23:39:40.552Z,0.64
2023-03-01T23:42:09.949Z,0.64
2023-03-01T23:44:40.869Z,0.69
2023-03-01T23:47:08.876Z,0.72
2023-03-01T23:49:36.841Z,0.72
2023-03-01T23:52:04.987Z,0.58
2023-03-01T23:54:33.075Z,0.55
2023-03-01T23:57:02.029Z,0.40
2023-03-01T23:59:31.408Z,0.40
